createdAt,value
2023-02-27T00:01:59.581Z,2.33
2023-02-27T00:07:21.495Z,3.40
2023-02-27T00:12:44.170Z,2.58
2023-02-27T00:18:06.198Z,3.70
2023-02-27T00:23:28.066Z,2.97
2023-02-27T00:28:49.935Z,3.63
2023-02-27T00:34:11.861Z,3.00
2023-02-27T00:39:33.971Z,3.33
2023-02-27T00:44:55.957Z,3.35
2023-02-27T00:50:18.006Z,3.35
2023-02-27T00:55:39.920Z,3.63
2023-02-27T01:01:01.987Z,4.05
2023-02-27T01:06:23.868Z,3.55
2023-02-27T01:11:45.889Z,3.50
2023-02-27T01:17:07.761Z,3.55
2023-02-27T01:22:29.630Z,4.00
2023-02-27T01:27:51.620Z,4.07
2023-02-27T01:33:13.581Z,4.07
2023-02-27T01:38:35.607Z,3.80
2023-02-27T01:44:10.412Z,3.80
2023-02-27T01:49:34.568Z,4.50
2023-02-27T01:54:57.496Z,3.58
2023-02-27T02:00:19.984Z,3.90
2023-02-27T02:05:43.673Z,3.50
2023-02-27T02:11:07.493Z,3.78
2023-02-27T02:16:56.718Z,3.03
2023-02-27T02:22:40.219Z,2.90
2023-02-27T02:28:08.066Z,3.20
2023-02-27T02:33:52.739Z,3.88
2023-02-27T02:39:14.610Z,4.38
2023-02-27T02:44:56.938Z,4.82
2023-02-27T02:50:29.350Z,3.83
2023-02-27T02:56:03.805Z,4.43
2023-02-27T03:01:37.328Z,5.40
2023-02-27T03:07:15.256Z,4.38
2023-02-27T03:12:40.974Z,5.28
2023-02-27T03:18:12.504Z,4.90
2023-02-27T03:23:40.588Z,5.05
2023-02-27T03:29:08.133Z,4.93
2023-02-27T03:34:40.214Z,5.65
2023-02-27T03:40:27.605Z,5.10
2023-02-27T03:46:16.199Z,5.85
2023-02-27T03:51:38.277Z,6.25
2023-02-27T03:57:05.466Z,5.60
2023-02-27T04:02:28.518Z,5.25
2023-02-27T04:07:53.164Z,5.63
2023-02-27T04:13:52.638Z,5.35
2023-02-27T04:19:36.873Z,5.07
2023-02-27T04:25:01.686Z,5.05
2023-02-27T04:30:47.969Z,5.30
2023-02-27T04:36:32.653Z,5.30
2023-02-27T04:42:01.556Z,5.32
2023-02-27T04:47:25.580Z,5.65
2023-02-27T04:52:55.648Z,5.38
2023-02-27T04:58:23.360Z,5.05
2023-02-27T05:03:50.009Z,4.60
2023-02-27T05:09:23.025Z,5.07
2023-02-27T05:15:17.436Z,4.43
2023-02-27T05:21:01.671Z,4.20
2023-02-27T05:26:26.490Z,3.67
2023-02-27T05:32:04.422Z,3.38
2023-02-27T05:37:34.261Z,3.50
2023-02-27T05:43:05.814Z,3.13
2023-02-27T05:48:32.307Z,2.45
2023-02-27T05:59:30.605Z,2.00
2023-02-27T06:04:52.664Z,1.55
2023-02-27T06:10:16.499Z,1.15
2023-02-27T06:15:38.840Z,1.50
2023-02-27T06:21:00.694Z,1.25
2023-02-27T06:26:23.348Z,1.60
2023-02-27T06:31:45.218Z,1.45
2023-02-27T06:37:07.123Z,1.50
2023-02-27T06:42:28.962Z,1.75
2023-02-27T06:47:50.833Z,1.60
2023-02-27T06:53:12.724Z,1.75
2023-02-27T06:58:34.575Z,1.85
2023-02-27T07:03:56.529Z,2.03
2023-02-27T07:09:18.617Z,1.58
2023-02-27T07:14:40.582Z,2.10
2023-02-27T07:20:02.713Z,1.52
2023-02-27T07:25:24.629Z,1.38
2023-02-27T07:30:46.904Z,1.45
2023-02-27T07:36:08.925Z,1.98
2023-02-27T07:41:31.324Z,2.35
2023-02-27T07:46:53.243Z,1.50
2023-02-27T07:52:15.177Z,1.20
2023-02-27T07:57:37.259Z,1.70
2023-02-27T08:02:59.195Z,2.10
2023-02-27T08:08:21.247Z,1.55
2023-02-27T08:13:59.656Z,1.92
2023-02-27T08:19:22.199Z,0.95
2023-02-27T08:24:44.170Z,1.00
2023-02-27T08:30:07.529Z,0.93
2023-02-27T08:35:29.500Z,0.98
2023-02-27T08:40:52.193Z,1.00
2023-02-27T08:46:14.081Z,0.85
2023-02-27T08:51:36.013Z,1.42
2023-02-27T08:56:57.819Z,1.80
2023-02-27T09:02:19.733Z,1.50
2023-02-27T09:07:41.574Z,2.20
2023-02-27T09:13:03.567Z,1.42
2023-02-27T09:18:25.409Z,1.77
2023-02-27T09:23:47.297Z,1.85
2023-02-27T09:29:09.192Z,1.17
2023-02-27T09:34:31.296Z,1.50
2023-02-27T09:39:53.232Z,1.25
2023-02-27T09:45:33.509Z,0.98
2023-02-27T09:50:56.652Z,1.52
2023-02-27T09:56:29.734Z,1.45
2023-02-27T10:02:11.963Z,1.08
2023-02-27T10:07:59.518Z,1.30
2023-02-27T10:13:39.724Z,1.63
2023-02-27T10:19:15.580Z,1.27
2023-02-27T10:24:46.170Z,0.97
2023-02-27T10:30:29.469Z,1.08
2023-02-27T10:35:51.925Z,1.25
2023-02-27T10:41:17.166Z,1.27
2023-02-27T10:46:40.500Z,1.10
2023-02-27T10:52:12.379Z,1.35
2023-02-27T10:57:42.945Z,1.42
2023-02-27T11:03:05.251Z,1.20
2023-02-27T11:08:31.812Z,1.10
2023-02-27T11:13:53.653Z,1.10
2023-02-27T11:19:35.298Z,0.93
2023-02-27T11:25:24.264Z,1.88
2023-02-27T11:31:00.235Z,1.33
2023-02-27T11:36:22.372Z,1.88
2023-02-27T11:41:44.568Z,1.33
2023-02-27T11:47:15.730Z,0.90
2023-02-27T11:53:06.615Z,0.70
2023-02-27T11:58:35.221Z,1.08
2023-02-27T12:04:09.476Z,0.80
2023-02-27T12:09:38.608Z,1.65
2023-02-27T12:15:25.165Z,1.77
2023-02-27T12:21:12.151Z,1.20
2023-02-27T12:26:38.081Z,1.42
2023-02-27T12:32:06.640Z,1.83
2023-02-27T12:37:30.686Z,1.35
2023-02-27T12:43:08.944Z,1.90
2023-02-27T12:48:34.689Z,2.42
2023-02-27T12:54:27.460Z,2.25
2023-02-27T12:59:58.708Z,2.67
2023-02-27T13:05:41.074Z,1.80
2023-02-27T13:11:12.034Z,1.50
2023-02-27T13:16:52.763Z,1.77
2023-02-27T13:22:20.855Z,2.10
2023-02-27T13:28:02.582Z,2.00
2023-02-27T13:33:35.236Z,1.85
2023-02-27T13:38:57.551Z,1.67
2023-02-27T13:44:19.389Z,1.85
2023-02-27T13:49:44.374Z,1.88
2023-02-27T13:55:39.157Z,1.95
2023-02-27T14:01:01.698Z,1.30
2023-02-27T14:06:26.295Z,1.40
2023-02-27T14:11:55.167Z,1.65
2023-02-27T14:17:35.512Z,1.67
2023-02-27T14:23:15.539Z,1.88
2023-02-27T14:28:50.140Z,1.90
2023-02-27T14:34:17.938Z,2.20
2023-02-27T14:39:40.503Z,1.75
2023-02-27T14:45:02.919Z,2.38
2023-02-27T14:50:33.741Z,1.88
2023-02-27T14:55:58.178Z,2.00
2023-02-27T15:01:20.634Z,2.95
2023-02-27T15:07:01.006Z,2.13
2023-02-27T15:12:24.693Z,2.60
2023-02-27T15:17:47.805Z,2.40
2023-02-27T15:23:25.823Z,2.50
2023-02-27T15:28:48.705Z,2.40
2023-02-27T15:34:13.771Z,2.35
2023-02-27T15:39:36.765Z,2.58
2023-02-27T15:44:59.576Z,2.00
2023-02-27T15:50:27.554Z,2.38
2023-02-27T15:55:55.549Z,1.92
2023-02-27T16:01:19.154Z,2.53
2023-02-27T16:06:47.344Z,2.47
2023-02-27T16:12:31.132Z,2.20
2023-02-27T16:18:00.825Z,2.35
2023-02-27T16:23:25.219Z,2.42
2023-02-27T16:29:18.081Z,2.70
2023-02-27T16:34:45.715Z,2.67
2023-02-27T16:40:18.303Z,2.58
2023-02-27T16:45:50.727Z,2.70
2023-02-27T16:51:17.467Z,2.70
2023-02-27T16:56:39.656Z,3.40
2023-02-27T17:02:07.819Z,3.45
2023-02-27T17:07:29.785Z,3.95
2023-02-27T17:12:52.305Z,3.42
2023-02-27T17:18:14.304Z,3.92
2023-02-27T17:23:36.382Z,3.30
2023-02-27T17:28:58.661Z,4.45
2023-02-27T17:34:20.566Z,4.55
2023-02-27T17:39:42.443Z,5.45
2023-02-27T17:45:05.379Z,3.50
2023-02-27T17:50:29.695Z,4.38
2023-02-27T17:55:51.559Z,3.90
2023-02-27T18:01:16.559Z,4.80
2023-02-27T18:06:38.731Z,4.97
2023-02-27T18:12:00.871Z,5.70
2023-02-27T18:17:23.371Z,3.08
2023-02-27T18:22:46.045Z,3.67
2023-02-27T18:28:09.221Z,3.47
2023-02-27T18:33:31.576Z,4.03
2023-02-27T18:38:53.573Z,3.85
2023-02-27T18:44:15.758Z,5.43
2023-02-27T18:49:38.056Z,4.60
2023-02-27T18:55:00.244Z,5.18
2023-02-27T19:00:22.493Z,4.80
2023-02-27T19:05:44.392Z,4.15
2023-02-27T19:11:06.384Z,4.28
2023-02-27T19:16:28.711Z,4.63
2023-02-27T19:21:50.789Z,4.78
2023-02-27T19:27:13.444Z,4.03
2023-02-27T19:32:35.320Z,4.22
2023-02-27T19:37:57.277Z,5.07
2023-02-27T19:43:19.281Z,4.55
2023-02-27T19:48:41.409Z,5.45
2023-02-27T19:54:03.441Z,4.68
2023-02-27T19:59:25.558Z,4.43
2023-02-27T20:04:47.485Z,5.30
2023-02-27T20:10:10.798Z,4.70
2023-02-27T20:15:32.807Z,4.55
2023-02-27T20:21:17.734Z,5.68
2023-02-27T20:26:42.778Z,5.47
2023-02-27T20:32:05.093Z,5.43
2023-02-27T20:37:27.242Z,5.30
2023-02-27T20:42:49.211Z,5.75
2023-02-27T20:48:11.152Z,5.75
2023-02-27T20:53:34.863Z,5.40
2023-02-27T20:58:56.846Z,5.05
2023-02-27T21:04:30.224Z,4.90
2023-02-27T21:09:52.209Z,5.90
2023-02-27T21:15:14.095Z,6.13
2023-02-27T21:20:36.018Z,6.70
2023-02-27T21:25:58.013Z,6.18
2023-02-27T21:31:22.084Z,6.72
2023-02-27T21:36:45.517Z,8.48
2023-02-27T21:42:07.374Z,10.73
2023-02-27T21:47:29.267Z,12.25
2023-02-27T21:52:51.156Z,11.82
2023-02-27T21:58:13.072Z,10.50
2023-02-27T22:03:34.924Z,8.35
2023-02-27T22:08:58.500Z,9.75
2023-02-27T22:14:20.422Z,8.48
2023-02-27T22:19:42.423Z,10.10
2023-02-27T22:25:04.586Z,8.85
2023-02-27T22:30:27.961Z,9.48
2023-02-27T22:35:49.832Z,10.88
2023-02-27T22:41:15.777Z,11.30
2023-02-27T22:46:44.520Z,9.43
2023-02-27T22:52:06.482Z,10.20
2023-02-27T22:57:28.371Z,10.77
2023-02-27T23:02:50.226Z,10.48
2023-02-27T23:08:12.254Z,10.30
2023-02-27T23:13:34.242Z,10.95
2023-02-27T23:18:58.176Z,10.63
2023-02-27T23:24:20.416Z,11.40
2023-02-27T23:29:42.285Z,11.10
2023-02-27T23:35:04.386Z,11.00
2023-02-27T23:40:27.596Z,10.07
2023-02-27T23:45:49.640Z,9.68
2023-02-27T23:51:11.871Z,9.30
2023-02-27T23:56:33.766Z,10.98
